Time;durP1;ratioP1;P1;durP2;ratioP2;P2;SDS_P1;SDS_P2;PMS_P1;PMS_P2;Temp;Humidity;BMP_temperature;BMP_pressure;BME280_temperature;BME280_humidity;BME280_pressure;Samples;Min_cycle;Max_cycle;Signal;HPM_P1;HPM_P2
2022/11/30 00:00:19;;;;;;;46.60;17.33;;;;;;;;;;5034132;28;20104;-79
2022/11/30 00:02:44;;;;;;;51.60;17.47;;;;;;;;;;5011531;28;20022;-79
2022/11/30 00:05:11;;;;;;;43.63;18.63;;;;;;;;;;5014778;28;20165;-80
2022/11/30 00:07:36;;;;;;;41.03;16.77;;;;;;;;;;5020608;28;20021;-77
2022/11/30 00:10:03;;;;;;;42.23;17.50;;;;;;;;;;5023903;28;20033;-78
2022/11/30 00:12:31;;;;;;;43.53;18.47;;;;;;;;;;5022847;28;20052;-77
2022/11/30 00:14:57;;;;;;;45.43;19.23;;;;;;;;;;5024335;28;20026;-78
2022/11/30 00:17:22;;;;;;;46.43;18.80;;;;;;;;;;5023409;28;20101;-78
2022/11/30 00:19:48;;;;;;;52.50;20.73;;;;;;;;;;5023289;28;20026;-79
2022/11/30 00:22:13;;;;;;;46.93;19.17;;;;;;;;;;5016434;28;20053;-80
2022/11/30 00:24:39;;;;;;;43.77;19.83;;;;;;;;;;5012321;28;20026;-79
2022/11/30 00:27:04;;;;;;;50.37;21.67;;;;;;;;;;5020019;28;20347;-77
2022/11/30 00:29:30;;;;;;;53.27;23.10;;;;;;;;;;5022626;28;20057;-78
2022/11/30 00:31:55;;;;;;;48.43;21.77;;;;;;;;;;5025034;28;20026;-77
2022/11/30 00:34:21;;;;;;;53.23;23.80;;;;;;;;;;5014393;28;20026;-79
2022/11/30 00:36:46;;;;;;;49.70;20.40;;;;;;;;;;5023318;28;20101;-78
2022/11/30 00:39:12;;;;;;;51.60;23.47;;;;;;;;;;5025402;28;20034;-77
2022/11/30 00:41:39;;;;;;;53.53;25.13;;;;;;;;;;5025903;28;20128;-77
2022/11/30 00:44:05;;;;;;;56.60;22.33;;;;;;;;;;5025163;28;20101;-77
2022/11/30 00:46:30;;;;;;;51.37;20.60;;;;;;;;;;5027942;28;20033;-77
2022/11/30 00:48:56;;;;;;;51.43;22.00;;;;;;;;;;5028831;28;20022;-77
2022/11/30 00:51:22;;;;;;;49.17;19.87;;;;;;;;;;5029212;28;20021;-78
2022/11/30 00:53:47;;;;;;;47.17;20.27;;;;;;;;;;5019005;28;20654;-79
2022/11/30 00:56:13;;;;;;;40.87;19.23;;;;;;;;;;5015506;28;20026;-78
2022/11/30 00:58:39;;;;;;;41.07;18.50;;;;;;;;;;5026350;28;20026;-77
2022/11/30 01:01:06;;;;;;;46.60;18.07;;;;;;;;;;5028019;28;20073;-77
2022/11/30 01:03:32;;;;;;;41.23;18.03;;;;;;;;;;5027324;28;20083;-77
2022/11/30 01:06:05;;;;;;;47.17;19.03;;;;;;;;;;5028271;28;20041;-78
2022/11/30 01:08:31;;;;;;;42.20;17.73;;;;;;;;;;5025955;28;20009;-79
2022/11/30 01:11:04;;;;;;;40.17;17.17;;;;;;;;;;5043506;28;20161;-77
2022/11/30 01:13:30;;;;;;;38.43;16.10;;;;;;;;;;5026820;28;20025;-76
2022/11/30 01:15:55;;;;;;;38.87;17.57;;;;;;;;;;5026461;28;20065;-78
2022/11/30 01:18:21;;;;;;;40.00;15.50;;;;;;;;;;5028259;28;20109;-79
2022/11/30 01:20:46;;;;;;;36.87;16.03;;;;;;;;;;5019391;28;20026;-79
2022/11/30 01:23:12;;;;;;;43.20;16.37;;;;;;;;;;5014049;28;20107;-78
2022/11/30 01:25:38;;;;;;;38.43;15.47;;;;;;;;;;5023530;28;20052;-78
2022/11/30 01:28:03;;;;;;;36.63;16.73;;;;;;;;;;5026346;28;20022;-78
2022/11/30 01:30:29;;;;;;;38.80;17.17;;;;;;;;;;5026557;28;20048;-77
2022/11/30 01:32:54;;;;;;;39.20;16.13;;;;;;;;;;5016808;28;20040;-76
2022/11/30 01:35:20;;;;;;;37.33;14.53;;;;;;;;;;5015504;28;20033;-80
2022/11/30 01:37:45;;;;;;;38.27;16.10;;;;;;;;;;5013244;28;20064;-78
2022/11/30 01:40:11;;;;;;;42.53;16.37;;;;;;;;;;5014949;28;20112;-77
2022/11/30 01:42:36;;;;;;;31.20;14.47;;;;;;;;;;5014565;28;20033;-79
2022/11/30 01:45:04;;;;;;;38.00;15.23;;;;;;;;;;5014630;28;20039;-79
2022/11/30 01:47:42;;;;;;;38.73;15.37;;;;;;;;;;5013026;28;20496;-78
2022/11/30 01:50:13;;;;;;;36.60;15.73;;;;;;;;;;4996933;28;20029;-77
2022/11/30 01:52:47;;;;;;;33.53;15.03;;;;;;;;;;5014053;28;20026;-78
2022/11/30 01:55:19;;;;;;;34.37;14.10;;;;;;;;;;5014576;28;20021;-79
2022/11/30 01:57:57;;;;;;;39.90;16.02;;;;;;;;;;5013436;28;20064;-79
2022/11/30 02:00:23;;;;;;;32.80;14.17;;;;;;;;;;5013811;28;20037;-78
2022/11/30 02:02:54;;;;;;;35.07;15.00;;;;;;;;;;5013600;28;20029;-78
2022/11/30 02:05:23;;;;;;;34.20;14.53;;;;;;;;;;5022229;28;20029;-79
2022/11/30 02:07:48;;;;;;;32.43;13.37;;;;;;;;;;5021085;28;20018;-78
2022/11/30 02:10:17;;;;;;;33.93;15.30;;;;;;;;;;5014431;28;20393;-78
2022/11/30 02:13:03;;;;;;;33.23;14.87;;;;;;;;;;5012086;28;20073;-80
2022/11/30 02:15:37;;;;;;;33.67;14.57;;;;;;;;;;5013578;28;20477;-79
2022/11/30 02:18:14;;;;;;;30.20;14.13;;;;;;;;;;5015172;28;20030;-79
2022/11/30 02:20:42;;;;;;;34.37;14.77;;;;;;;;;;5014882;28;20030;-79
2022/11/30 02:23:13;;;;;;;36.20;14.93;;;;;;;;;;5014653;28;20018;-77
2022/11/30 02:26:04;;;;;;;30.33;13.00;;;;;;;;;;5013315;28;20366;-78
2022/11/30 02:28:32;;;;;;;31.30;14.60;;;;;;;;;;5013739;28;20077;-79
2022/11/30 02:31:00;;;;;;;32.00;14.37;;;;;;;;;;5013551;28;20065;-78
2022/11/30 02:33:28;;;;;;;33.97;14.07;;;;;;;;;;5011349;28;20040;-78
2022/11/30 02:35:54;;;;;;;36.80;14.73;;;;;;;;;;5012429;28;20400;-78
2022/11/30 02:38:22;;;;;;;33.53;15.10;;;;;;;;;;5011841;28;20038;-78
2022/11/30 02:40:48;;;;;;;37.73;15.87;;;;;;;;;;5019400;28;20111;-78
2022/11/30 02:43:15;;;;;;;31.00;14.93;;;;;;;;;;5032719;28;20033;-78
2022/11/30 02:45:54;;;;;;;31.90;13.67;;;;;;;;;;5033480;28;20025;-77
2022/11/30 02:48:31;;;;;;;30.93;14.47;;;;;;;;;;5033467;28;20021;-78
2022/11/30 02:51:01;;;;;;;33.20;14.13;;;;;;;;;;5033002;28;20029;-79
2022/11/30 02:53:27;;;;;;;35.77;16.07;;;;;;;;;;5033290;28;20079;-77
2022/11/30 02:55:52;;;;;;;34.20;15.53;;;;;;;;;;5033591;28;20017;-78
2022/11/30 02:58:18;;;;;;;35.43;14.57;;;;;;;;;;5032264;28;20035;-79
2022/11/30 03:00:44;;;;;;;34.43;14.80;;;;;;;;;;5031577;28;20665;-79
2022/11/30 03:03:10;;;;;;;36.70;15.17;;;;;;;;;;5031761;28;20104;-77
2022/11/30 03:05:35;;;;;;;36.30;13.80;;;;;;;;;;5035592;28;20511;-77
2022/11/30 03:08:01;;;;;;;32.67;14.83;;;;;;;;;;5034081;28;20021;-79
2022/11/30 03:10:27;;;;;;;36.60;16.17;;;;;;;;;;5033264;28;20068;-78
2022/11/30 03:12:58;;;;;;;34.93;13.57;;;;;;;;;;5030455;28;20045;-79
2022/11/30 03:15:23;;;;;;;31.00;14.57;;;;;;;;;;5033804;28;20059;-79
2022/11/30 03:17:49;;;;;;;36.33;15.07;;;;;;;;;;5032857;28;20109;-79
2022/11/30 03:20:14;;;;;;;38.60;14.27;;;;;;;;;;5032123;28;20141;-79
2022/11/30 03:22:40;;;;;;;36.47;15.37;;;;;;;;;;5032110;28;20021;-78
2022/11/30 03:25:06;;;;;;;35.93;14.03;;;;;;;;;;5033255;28;20436;-78
2022/11/30 03:27:31;;;;;;;35.97;14.93;;;;;;;;;;5033512;28;20021;-76
2022/11/30 03:29:56;;;;;;;35.93;14.20;;;;;;;;;;5033762;28;20053;-78
2022/11/30 03:32:22;;;;;;;32.00;14.20;;;;;;;;;;5032543;28;20029;-78
2022/11/30 03:34:47;;;;;;;28.67;14.03;;;;;;;;;;5033803;28;20397;-78
2022/11/30 03:37:13;;;;;;;35.07;15.17;;;;;;;;;;5033205;28;20041;-78
2022/11/30 03:39:39;;;;;;;38.17;16.50;;;;;;;;;;5032046;28;20025;-78
2022/11/30 03:42:04;;;;;;;34.93;15.57;;;;;;;;;;5031882;28;20032;-78
2022/11/30 03:44:30;;;;;;;30.03;13.73;;;;;;;;;;5032125;28;20033;-78
2022/11/30 03:46:55;;;;;;;39.50;14.07;;;;;;;;;;5031177;28;20025;-79
2022/11/30 03:49:21;;;;;;;33.60;14.87;;;;;;;;;;5031819;28;20109;-79
2022/11/30 03:51:46;;;;;;;44.73;15.07;;;;;;;;;;5033013;28;20030;-78
2022/11/30 03:54:12;;;;;;;35.23;14.10;;;;;;;;;;5032754;28;20026;-78
2022/11/30 03:56:37;;;;;;;33.80;13.83;;;;;;;;;;5033003;28;20407;-78
2022/11/30 03:59:02;;;;;;;35.13;14.20;;;;;;;;;;5033227;28;20064;-78
2022/11/30 04:01:28;;;;;;;32.40;13.27;;;;;;;;;;5031937;28;20060;-79
2022/11/30 04:03:53;;;;;;;34.20;14.33;;;;;;;;;;5032704;28;20522;-78
2022/11/30 04:06:20;;;;;;;28.33;13.50;;;;;;;;;;5032541;28;20469;-79
2022/11/30 04:08:46;;;;;;;33.73;14.17;;;;;;;;;;5032342;28;20056;-79
2022/11/30 04:11:12;;;;;;;39.53;15.40;;;;;;;;;;5031306;28;20057;-77
2022/11/30 04:13:39;;;;;;;38.60;15.13;;;;;;;;;;5032600;28;20086;-79
2022/11/30 04:16:05;;;;;;;45.57;14.23;;;;;;;;;;5034126;28;20520;-78
2022/11/30 04:18:32;;;;;;;34.07;14.90;;;;;;;;;;5033736;28;20385;-79
2022/11/30 04:20:59;;;;;;;31.30;13.97;;;;;;;;;;5035981;28;20425;-78
2022/11/30 04:23:28;;;;;;;35.33;16.73;;;;;;;;;;5037180;28;20033;-78
2022/11/30 04:25:54;;;;;;;34.07;15.73;;;;;;;;;;5035327;28;20025;-78
2022/11/30 04:28:19;;;;;;;31.90;15.67;;;;;;;;;;5040181;28;20464;-77
2022/11/30 04:30:45;;;;;;;39.33;16.50;;;;;;;;;;5036339;28;20030;-78
2022/11/30 04:33:12;;;;;;;36.83;16.67;;;;;;;;;;5036578;28;20067;-79
2022/11/30 04:35:44;;;;;;;38.27;17.03;;;;;;;;;;5036432;28;20045;-78
2022/11/30 04:38:09;;;;;;;39.38;17.90;;;;;;;;;;5036663;28;20049;-78
2022/11/30 04:40:41;;;;;;;42.87;17.00;;;;;;;;;;5034955;28;20040;-79
2022/11/30 04:43:07;;;;;;;39.65;17.88;;;;;;;;;;5036903;28;20392;-78
2022/11/30 04:45:33;;;;;;;41.67;17.13;;;;;;;;;;5035381;28;20013;-77
2022/11/30 04:47:58;;;;;;;38.97;16.37;;;;;;;;;;5035329;28;20040;-80
2022/11/30 04:50:24;;;;;;;38.83;14.80;;;;;;;;;;5035099;28;20120;-79
2022/11/30 04:52:50;;;;;;;40.23;16.20;;;;;;;;;;5035586;28;20087;-78
2022/11/30 04:55:18;;;;;;;39.00;15.40;;;;;;;;;;5036392;28;20025;-77
2022/11/30 04:57:46;;;;;;;32.57;15.73;;;;;;;;;;5035680;28;20025;-77
2022/11/30 05:00:14;;;;;;;45.13;15.77;;;;;;;;;;5034590;28;20083;-77
2022/11/30 05:02:40;;;;;;;44.30;17.00;;;;;;;;;;5035702;28;20099;-79
2022/11/30 05:05:06;;;;;;;35.67;15.43;;;;;;;;;;5034281;28;20017;-78
2022/11/30 05:07:31;;;;;;;36.83;15.33;;;;;;;;;;5036427;28;20013;-79
2022/11/30 05:09:58;;;;;;;40.73;17.60;;;;;;;;;;5051285;28;20033;-79
2022/11/30 05:12:23;;;;;;;38.63;15.77;;;;;;;;;;5035160;28;20057;-78
2022/11/30 05:14:49;;;;;;;43.80;15.77;;;;;;;;;;5035762;28;20026;-78
2022/11/30 05:17:14;;;;;;;38.33;15.50;;;;;;;;;;5035612;28;20108;-78
2022/11/30 05:19:40;;;;;;;40.50;15.30;;;;;;;;;;5035575;28;20048;-79
2022/11/30 05:22:05;;;;;;;37.67;15.87;;;;;;;;;;5033746;28;20030;-78
2022/11/30 05:24:31;;;;;;;38.13;16.17;;;;;;;;;;5034033;28;20026;-79
2022/11/30 05:26:57;;;;;;;38.63;15.80;;;;;;;;;;5035600;28;20041;-79
2022/11/30 05:29:22;;;;;;;33.10;15.33;;;;;;;;;;5035164;28;20029;-77
2022/11/30 05:31:48;;;;;;;37.93;15.90;;;;;;;;;;5035018;28;20107;-78
2022/11/30 05:34:14;;;;;;;36.37;15.70;;;;;;;;;;5034212;28;20069;-79
2022/11/30 05:36:39;;;;;;;43.70;15.50;;;;;;;;;;5035291;28;20036;-78
2022/11/30 05:39:05;;;;;;;38.60;16.07;;;;;;;;;;5035126;28;20532;-78
2022/11/30 05:41:30;;;;;;;38.87;15.50;;;;;;;;;;5034680;28;20428;-78
2022/11/30 05:43:56;;;;;;;40.67;16.60;;;;;;;;;;5034455;28;20033;-78
2022/11/30 05:46:21;;;;;;;38.83;17.77;;;;;;;;;;5033566;28;20074;-79
2022/11/30 05:48:47;;;;;;;33.93;16.50;;;;;;;;;;5032832;28;20059;-78
2022/11/30 05:51:15;;;;;;;42.67;18.00;;;;;;;;;;5033990;28;20108;-78
2022/11/30 05:53:42;;;;;;;37.07;16.27;;;;;;;;;;5034324;28;20512;-80
2022/11/30 05:56:13;;;;;;;48.90;18.57;;;;;;;;;;5034870;28;20040;-77
2022/11/30 05:58:39;;;;;;;37.65;15.50;;;;;;;;;;5033193;28;20028;-77
2022/11/30 06:01:05;;;;;;;41.07;18.00;;;;;;;;;;5033063;28;20396;-78
2022/11/30 06:03:32;;;;;;;36.90;16.53;;;;;;;;;;5034754;28;20025;-78
2022/11/30 06:05:58;;;;;;;37.70;18.20;;;;;;;;;;5049492;28;20515;-78
2022/11/30 06:08:25;;;;;;;39.60;15.83;;;;;;;;;;5033327;28;20021;-78
2022/11/30 06:10:51;;;;;;;35.23;16.23;;;;;;;;;;5031550;28;20083;-77
2022/11/30 06:13:17;;;;;;;52.10;19.53;;;;;;;;;;5015248;28;20498;-78
2022/11/30 06:15:42;;;;;;;40.33;16.03;;;;;;;;;;5017064;28;20132;-77
2022/11/30 06:18:11;;;;;;;42.83;16.83;;;;;;;;;;5015405;28;20026;-77
2022/11/30 06:20:36;;;;;;;38.47;18.80;;;;;;;;;;5017304;28;20048;-77
2022/11/30 06:23:02;;;;;;;45.10;18.43;;;;;;;;;;5016269;28;20036;-81
2022/11/30 06:25:28;;;;;;;41.70;16.87;;;;;;;;;;5015318;28;20018;-78
2022/11/30 06:27:53;;;;;;;46.37;17.53;;;;;;;;;;5014134;28;20110;-78
2022/11/30 06:30:19;;;;;;;35.17;16.33;;;;;;;;;;5014505;28;20030;-79
2022/11/30 06:32:49;;;;;;;53.27;18.53;;;;;;;;;;5014236;28;20132;-79
2022/11/30 06:35:15;;;;;;;40.63;17.10;;;;;;;;;;5014789;28;20243;-79
2022/11/30 06:37:41;;;;;;;46.70;17.07;;;;;;;;;;5013502;28;20038;-79
2022/11/30 06:40:08;;;;;;;40.63;17.50;;;;;;;;;;5014339;28;20030;-78
2022/11/30 06:42:34;;;;;;;56.57;19.57;;;;;;;;;;5016439;28;20014;-79
2022/11/30 06:45:01;;;;;;;40.70;17.83;;;;;;;;;;5014417;28;20492;-80
2022/11/30 06:47:27;;;;;;;46.03;18.00;;;;;;;;;;5012603;28;20033;-78
2022/11/30 06:49:53;;;;;;;43.97;17.87;;;;;;;;;;5014143;28;20026;-78
2022/11/30 06:52:19;;;;;;;46.33;17.20;;;;;;;;;;5014201;28;20539;-80
2022/11/30 06:54:45;;;;;;;43.93;17.00;;;;;;;;;;5013044;28;20021;-80
2022/11/30 06:57:10;;;;;;;49.50;19.50;;;;;;;;;;5012343;28;20085;-79
2022/11/30 06:59:41;;;;;;;49.50;20.27;;;;;;;;;;5015492;23;20080;-77
2022/11/30 07:02:10;;;;;;;45.90;18.47;;;;;;;;;;5005290;28;20045;-77
2022/11/30 07:04:35;;;;;;;54.93;18.90;;;;;;;;;;4989172;28;20022;-77
2022/11/30 07:07:01;;;;;;;46.73;18.10;;;;;;;;;;4988914;28;20022;-77
2022/11/30 07:09:26;;;;;;;44.23;18.63;;;;;;;;;;4983660;28;20429;-77
2022/11/30 07:11:52;;;;;;;38.87;17.53;;;;;;;;;;4987240;28;20036;-77
2022/11/30 07:14:17;;;;;;;49.83;18.60;;;;;;;;;;4990117;28;20022;-77
2022/11/30 07:16:43;;;;;;;49.07;18.67;;;;;;;;;;5006519;28;20433;-77
2022/11/30 07:19:08;;;;;;;53.53;18.03;;;;;;;;;;5024703;28;20033;-77
2022/11/30 07:21:34;;;;;;;45.13;17.87;;;;;;;;;;4991317;28;20344;-78
2022/11/30 07:26:47;;;;;;;46.33;17.77;;;;;;;;;;4989306;28;20088;-77
2022/11/30 07:29:12;;;;;;;45.50;18.73;;;;;;;;;;4990801;28;20022;-77
2022/11/30 07:31:38;;;;;;;61.30;20.90;;;;;;;;;;4990600;28;20092;-78
2022/11/30 07:34:07;;;;;;;51.20;19.37;;;;;;;;;;4989021;28;20033;-79
2022/11/30 07:36:33;;;;;;;50.13;20.77;;;;;;;;;;4989329;28;20062;-78
2022/11/30 07:38:59;;;;;;;51.30;19.17;;;;;;;;;;4988841;28;20023;-76
2022/11/30 07:41:25;;;;;;;43.80;18.43;;;;;;;;;;4983297;28;20459;-76
2022/11/30 07:43:50;;;;;;;48.60;20.17;;;;;;;;;;4979876;28;20098;-78
2022/11/30 07:46:16;;;;;;;43.53;18.70;;;;;;;;;;4969520;28;20360;-76
2022/11/30 07:48:43;;;;;;;49.37;18.47;;;;;;;;;;4983221;28;20170;-77
2022/11/30 07:51:14;;;;;;;48.80;21.70;;;;;;;;;;4987535;28;20022;-77
2022/11/30 07:53:40;;;;;;;50.30;21.02;;;;;;;;;;4987936;28;20030;-77
2022/11/30 07:56:09;;;;;;;45.10;19.23;;;;;;;;;;4991523;28;20129;-78
2022/11/30 07:58:34;;;;;;;45.30;18.20;;;;;;;;;;4991913;28;20539;-77
2022/11/30 08:01:04;;;;;;;53.07;20.03;;;;;;;;;;4991161;28;20034;-77
2022/11/30 08:03:30;;;;;;;52.50;19.50;;;;;;;;;;4993285;28;20033;-77
2022/11/30 08:06:10;;;;;;;51.93;19.80;;;;;;;;;;4992556;28;20074;-77
2022/11/30 08:08:38;;;;;;;44.63;19.17;;;;;;;;;;4992530;28;20383;-76
2022/11/30 08:11:08;;;;;;;50.13;19.80;;;;;;;;;;4995434;28;20029;-77
2022/11/30 08:13:34;;;;;;;53.07;20.50;;;;;;;;;;4995681;28;20038;-77
2022/11/30 08:16:05;;;;;;;46.03;18.67;;;;;;;;;;4994184;28;20080;-80
2022/11/30 08:18:30;;;;;;;57.00;19.43;;;;;;;;;;4987893;28;20487;-76
2022/11/30 08:21:01;;;;;;;48.37;20.03;;;;;;;;;;4986440;28;20089;-77
2022/11/30 08:23:31;;;;;;;49.05;19.33;;;;;;;;;;4988463;28;20179;-77
2022/11/30 08:26:05;;;;;;;53.23;21.87;;;;;;;;;;4989213;28;20133;-78
2022/11/30 08:28:32;;;;;;;43.57;18.30;;;;;;;;;;4989306;28;20018;-78
2022/11/30 08:31:02;;;;;;;51.07;20.17;;;;;;;;;;4985825;28;20729;-77
2022/11/30 08:33:30;;;;;;;48.97;20.23;;;;;;;;;;4988262;28;20057;-77
2022/11/30 08:36:08;;;;;;;51.43;19.67;;;;;;;;;;4995143;28;20038;-78
2022/11/30 08:38:34;;;;;;;65.30;21.67;;;;;;;;;;4989829;28;20030;-78
2022/11/30 08:41:00;;;;;;;56.40;20.47;;;;;;;;;;4990291;28;20031;-78
2022/11/30 08:43:27;;;;;;;50.47;20.40;;;;;;;;;;4986505;28;20438;-77
2022/11/30 08:45:53;;;;;;;47.60;18.37;;;;;;;;;;5009344;28;20042;-79
2022/11/30 08:48:19;;;;;;;56.57;22.00;;;;;;;;;;4996468;28;20550;-79
2022/11/30 08:50:44;;;;;;;57.43;19.87;;;;;;;;;;4987901;28;20042;-77
2022/11/30 08:53:10;;;;;;;60.70;21.10;;;;;;;;;;4990868;28;20026;-77
2022/11/30 08:55:35;;;;;;;49.87;18.60;;;;;;;;;;4990325;28;20343;-78
2022/11/30 08:58:01;;;;;;;58.87;20.70;;;;;;;;;;4990016;28;20058;-77
2022/11/30 09:00:26;;;;;;;43.07;19.00;;;;;;;;;;4993601;28;20062;-79
2022/11/30 09:02:52;;;;;;;45.90;19.20;;;;;;;;;;4993997;28;20101;-77
2022/11/30 09:05:18;;;;;;;52.17;20.23;;;;;;;;;;4996101;28;20149;-79
2022/11/30 09:07:43;;;;;;;46.37;20.83;;;;;;;;;;4998570;28;20032;-77
2022/11/30 09:10:09;;;;;;;49.00;19.90;;;;;;;;;;4988936;28;20383;-79
2022/11/30 09:12:37;;;;;;;60.77;21.23;;;;;;;;;;4994977;28;20033;-78
2022/11/30 09:15:05;;;;;;;45.67;17.30;;;;;;;;;;4989699;28;20030;-79
2022/11/30 09:17:31;;;;;;;61.60;19.57;;;;;;;;;;4998865;28;20092;-78
2022/11/30 09:19:56;;;;;;;46.23;17.83;;;;;;;;;;4981736;28;20046;-78
2022/11/30 09:22:24;;;;;;;48.93;16.40;;;;;;;;;;4988450;28;20041;-76
2022/11/30 09:24:49;;;;;;;41.30;15.90;;;;;;;;;;4990696;28;20101;-78
2022/11/30 09:27:15;;;;;;;45.03;16.83;;;;;;;;;;4994726;28;20117;-78
2022/11/30 09:29:40;;;;;;;43.27;16.13;;;;;;;;;;4994285;28;20188;-78
2022/11/30 09:32:05;;;;;;;43.40;16.37;;;;;;;;;;4987425;28;20034;-78
2022/11/30 09:34:31;;;;;;;41.97;16.93;;;;;;;;;;4986451;28;20030;-76
2022/11/30 09:36:57;;;;;;;44.23;18.77;;;;;;;;;;4991659;28;20031;-77
2022/11/30 09:39:23;;;;;;;41.53;16.83;;;;;;;;;;4992211;28;20110;-77
2022/11/30 09:41:48;;;;;;;41.97;16.90;;;;;;;;;;5003453;28;20435;-77
2022/11/30 09:44:34;;;;;;;37.37;15.97;;;;;;;;;;4986493;28;20145;-78
2022/11/30 09:47:11;;;;;;;38.67;16.60;;;;;;;;;;4985801;28;20787;-76
2022/11/30 09:49:42;;;;;;;33.83;15.53;;;;;;;;;;4989358;28;20054;-77
2022/11/30 09:52:31;;;;;;;44.40;17.80;;;;;;;;;;4987204;28;20022;-77
2022/11/30 09:55:05;;;;;;;47.30;17.57;;;;;;;;;;4988911;28;20334;-77
2022/11/30 09:57:41;;;;;;;42.27;16.47;;;;;;;;;;4988716;28;20638;-77
2022/11/30 10:00:16;;;;;;;41.23;17.33;;;;;;;;;;4985791;28;20058;-79
2022/11/30 10:02:42;;;;;;;38.63;16.23;;;;;;;;;;4984392;28;20026;-78
2022/11/30 10:05:20;;;;;;;44.83;16.67;;;;;;;;;;4986088;28;20109;-78
2022/11/30 10:07:52;;;;;;;39.87;17.07;;;;;;;;;;4987886;28;20037;-78
2022/11/30 10:10:40;;;;;;;41.88;15.73;;;;;;;;;;4989070;28;20030;-79
2022/11/30 10:13:22;;;;;;;54.57;17.23;;;;;;;;;;4988600;28;20140;-78
2022/11/30 10:16:08;;;;;;;35.37;16.77;;;;;;;;;;4991209;28;20026;-80
2022/11/30 10:19:09;;;;;;;56.13;17.03;;;;;;;;;;4985483;28;20055;-80
2022/11/30 10:21:56;;;;;;;42.70;17.27;;;;;;;;;;4988054;28;20427;-79
2022/11/30 10:24:46;;;;;;;41.93;15.60;;;;;;;;;;4991029;28;20029;-78
2022/11/30 10:27:26;;;;;;;39.37;16.17;;;;;;;;;;5008233;28;20080;-79
2022/11/30 10:29:53;;;;;;;38.83;14.97;;;;;;;;;;4986705;28;20498;-78
2022/11/30 10:32:21;;;;;;;33.50;15.97;;;;;;;;;;4984757;28;20100;-79
2022/11/30 10:35:32;;;;;;;38.60;15.97;;;;;;;;;;4988310;28;20038;-80
2022/11/30 10:38:02;;;;;;;35.17;14.80;;;;;;;;;;4991138;28;20125;-79
2022/11/30 10:40:43;;;;;;;49.60;16.07;;;;;;;;;;4984639;28;20023;-78
2022/11/30 10:43:17;;;;;;;40.57;16.27;;;;;;;;;;4986921;28;20074;-78
2022/11/30 10:45:49;;;;;;;41.93;16.43;;;;;;;;;;4987100;28;20037;-78
2022/11/30 10:48:21;;;;;;;45.05;16.35;;;;;;;;;;4993625;28;20553;-79
2022/11/30 10:50:47;;;;;;;40.72;15.85;;;;;;;;;;4988623;28;20041;-77
2022/11/30 10:53:13;;;;;;;36.23;16.00;;;;;;;;;;4994352;28;20124;-80
2022/11/30 10:55:49;;;;;;;36.13;16.63;;;;;;;;;;4997854;28;20028;-79
2022/11/30 10:58:25;;;;;;;41.70;15.63;;;;;;;;;;5000409;28;20379;-81
2022/11/30 11:01:27;;;;;;;33.37;16.30;;;;;;;;;;4985856;28;20134;-78
2022/11/30 11:04:16;;;;;;;43.85;17.35;;;;;;;;;;4985680;28;20041;-77
2022/11/30 11:06:57;;;;;;;44.23;17.40;;;;;;;;;;4995108;28;20026;-78
2022/11/30 11:09:28;;;;;;;39.63;16.73;;;;;;;;;;4986277;28;20320;-78
2022/11/30 11:11:58;;;;;;;47.38;16.70;;;;;;;;;;4982886;28;20042;-78
2022/11/30 11:14:25;;;;;;;40.03;16.53;;;;;;;;;;4987578;28;20490;-79
2022/11/30 11:17:05;;;;;;;42.83;18.53;;;;;;;;;;4989478;28;20498;-79
2022/11/30 11:19:35;;;;;;;44.57;17.90;;;;;;;;;;4983611;28;20065;-78
2022/11/30 11:22:13;;;;;;;40.27;19.10;;;;;;;;;;4994303;28;20034;-77
2022/11/30 11:24:39;;;;;;;36.53;16.57;;;;;;;;;;4998523;28;20064;-75
2022/11/30 11:27:05;;;;;;;52.27;18.80;;;;;;;;;;4991677;28;20117;-78
2022/11/30 11:29:33;;;;;;;40.67;17.20;;;;;;;;;;4990644;28;20080;-77
2022/11/30 11:32:17;;;;;;;53.47;20.90;;;;;;;;;;4985416;28;20049;-77
2022/11/30 11:34:44;;;;;;;38.47;17.23;;;;;;;;;;5000959;28;20272;-78
2022/11/30 11:37:19;;;;;;;38.90;17.67;;;;;;;;;;4984464;28;20392;-78
2022/11/30 11:40:07;;;;;;;48.37;18.57;;;;;;;;;;4984467;28;20181;-78
2022/11/30 11:42:53;;;;;;;44.23;17.93;;;;;;;;;;4989011;28;20042;-79
2022/11/30 11:45:25;;;;;;;44.53;17.87;;;;;;;;;;4987102;28;20125;-77
2022/11/30 11:48:03;;;;;;;46.97;18.02;;;;;;;;;;4988695;28;20026;-77
2022/11/30 11:50:31;;;;;;;44.40;17.90;;;;;;;;;;4997707;28;20027;-79
2022/11/30 11:53:13;;;;;;;36.87;17.87;;;;;;;;;;4986401;28;20545;-77
2022/11/30 11:55:42;;;;;;;42.60;18.50;;;;;;;;;;4983753;28;20053;-77
2022/11/30 11:58:16;;;;;;;43.03;17.03;;;;;;;;;;4986594;28;20073;-78
2022/11/30 12:00:43;;;;;;;45.30;17.77;;;;;;;;;;4992215;28;20501;-75
2022/11/30 12:03:30;;;;;;;122.37;25.63;;;;;;;;;;4985510;28;20037;-78
2022/11/30 12:06:01;;;;;;;49.83;19.37;;;;;;;;;;4984579;28;20027;-77
2022/11/30 12:08:53;;;;;;;41.42;16.23;;;;;;;;;;4987333;28;20029;-78
2022/11/30 12:11:25;;;;;;;;;;;;;;;;;;4972414;28;20357;-77
2022/11/30 12:13:52;;;;;;;48.35;17.35;;;;;;;;;;4985640;28;19972;-77
2022/11/30 12:16:32;;;;;;;42.77;16.97;;;;;;;;;;4986099;28;20041;-77
2022/11/30 12:19:21;;;;;;;39.83;15.37;;;;;;;;;;4979088;28;20479;-79
2022/11/30 12:22:21;;;;;;;41.57;17.33;;;;;;;;;;4986126;28;20730;-79
2022/11/30 12:25:14;;;;;;;39.67;16.97;;;;;;;;;;4982142;28;20065;-79
2022/11/30 12:28:03;;;;;;;38.57;16.70;;;;;;;;;;4984173;28;20073;-82
2022/11/30 12:30:47;;;;;;;33.67;15.70;;;;;;;;;;4987895;28;20034;-78
2022/11/30 12:33:37;;;;;;;44.37;17.93;;;;;;;;;;4986555;28;20058;-78
2022/11/30 12:36:25;;;;;;;42.73;14.80;;;;;;;;;;4989373;28;20543;-81
2022/11/30 12:38:58;;;;;;;48.30;17.57;;;;;;;;;;4994843;28;20039;-79
2022/11/30 12:41:48;;;;;;;43.50;16.07;;;;;;;;;;4981037;28;20034;-81
2022/11/30 12:44:46;;;;;;;38.17;15.80;;;;;;;;;;5006494;28;20037;-79
2022/11/30 12:47:26;;;;;;;41.53;16.73;;;;;;;;;;4975586;28;20038;-81
2022/11/30 12:50:10;;;;;;;43.07;15.30;;;;;;;;;;5002975;28;20056;-80
2022/11/30 12:52:58;;;;;;;38.50;15.10;;;;;;;;;;4988166;28;20565;-80
2022/11/30 12:55:45;;;;;;;46.40;16.30;;;;;;;;;;4993577;28;20049;-82
2022/11/30 12:58:19;;;;;;;36.20;16.40;;;;;;;;;;4989523;28;20050;-78
2022/11/30 13:01:14;;;;;;;38.83;16.50;;;;;;;;;;4992938;28;20035;-80
2022/11/30 13:06:43;;;;;;;51.10;17.97;;;;;;;;;;4985282;28;20137;-79
2022/11/30 13:09:32;;;;;;;38.93;16.13;;;;;;;;;;4994765;28;20018;-81
2022/11/30 13:12:06;;;;;;;40.97;17.00;;;;;;;;;;4994693;28;20605;-79
2022/11/30 13:14:33;;;;;;;36.57;15.80;;;;;;;;;;4994981;28;20021;-80
2022/11/30 13:17:11;;;;;;;38.13;16.67;;;;;;;;;;4992817;28;20072;-81
2022/11/30 13:19:58;;;;;;;37.40;16.57;;;;;;;;;;4988747;28;20148;-80
2022/11/30 13:22:33;;;;;;;42.73;16.67;;;;;;;;;;4988157;28;20153;-78
2022/11/30 13:25:26;;;;;;;44.60;16.93;;;;;;;;;;4986352;28;20109;-78
2022/11/30 13:28:13;;;;;;;38.17;16.53;;;;;;;;;;4990713;28;20356;-78
2022/11/30 13:30:52;;;;;;;42.50;16.53;;;;;;;;;;4992690;28;20443;-79
2022/11/30 13:33:36;;;;;;;56.77;26.80;;;;;;;;;;5003060;28;20138;-79
2022/11/30 13:36:05;;;;;;;53.77;19.90;;;;;;;;;;4989610;28;20085;-78
2022/11/30 13:38:32;;;;;;;51.80;22.13;;;;;;;;;;4988418;28;20125;-78
2022/11/30 13:41:01;;;;;;;47.83;19.20;;;;;;;;;;4988467;28;20101;-79
2022/11/30 13:43:47;;;;;;;36.90;17.03;;;;;;;;;;4986592;28;20356;-81
2022/11/30 13:46:17;;;;;;;43.37;18.03;;;;;;;;;;5004418;28;20026;-78
2022/11/30 13:49:07;;;;;;;45.47;19.17;;;;;;;;;;4991014;28;20077;-79
2022/11/30 13:51:39;;;;;;;50.40;18.70;;;;;;;;;;4986105;28;20499;-77
2022/11/30 13:54:39;;;;;;;40.25;17.08;;;;;;;;;;4985429;28;20025;-79
2022/11/30 13:57:42;;;;;;;44.13;18.53;;;;;;;;;;4982412;28;20848;-78
2022/11/30 14:00:26;;;;;;;;;;;;;;;;;;4973841;28;20550;-78
2022/11/30 14:03:27;;;;;;;41.33;17.10;;;;;;;;;;4982336;28;19917;-77
2022/11/30 14:06:00;;;;;;;39.83;16.67;;;;;;;;;;5008146;28;20021;-75
2022/11/30 14:08:36;;;;;;;39.13;17.80;;;;;;;;;;4990829;28;20030;-77
2022/11/30 14:11:27;;;;;;;40.73;17.50;;;;;;;;;;4980045;28;20081;-78
2022/11/30 14:13:53;;;;;;;47.00;17.37;;;;;;;;;;4999930;28;20018;-78
2022/11/30 14:16:28;;;;;;;38.77;16.43;;;;;;;;;;4991978;28;20033;-78
2022/11/30 14:18:55;;;;;;;44.63;17.03;;;;;;;;;;4975039;28;20049;-79
2022/11/30 14:21:33;;;;;;;37.40;17.23;;;;;;;;;;4982800;28;20137;-76
2022/11/30 14:24:04;;;;;;;34.87;15.47;;;;;;;;;;4989218;28;20030;-78
2022/11/30 14:26:43;;;;;;;47.50;17.80;;;;;;;;;;4986985;28;20073;-78
2022/11/30 14:29:18;;;;;;;37.17;17.63;;;;;;;;;;4993302;28;20083;-79
2022/11/30 14:31:47;;;;;;;40.47;16.60;;;;;;;;;;4992939;28;20049;-79
2022/11/30 14:34:26;;;;;;;37.30;16.23;;;;;;;;;;4988456;28;20108;-76
2022/11/30 14:36:58;;;;;;;41.70;18.53;;;;;;;;;;4983808;28;20041;-78
2022/11/30 14:39:31;;;;;;;44.20;18.07;;;;;;;;;;4988762;28;20084;-78
2022/11/30 14:41:57;;;;;;;45.77;20.10;;;;;;;;;;4986501;28;20030;-79
2022/11/30 14:44:27;;;;;;;45.17;18.97;;;;;;;;;;4990403;28;20026;-78